Terminal Aerodrome Forecast
Issued by NWS Pueblo, CO

Home | Current Version | Previous Version | Text Only | Print | Product List | Glossary On
Versions: 1 2 3 4 5 6 7 8 9 10 11 12 13 14 15 16 17 18 19 20 21 22 23 24 25 26 27 28 29 30 31 32 33
000
FTUS45 KPUB 150527
TAFCOS
TAF
KCOS 150527Z 1506/1606 11005KT P6SM BKN040
     FM150900 06006KT P6SM OVC010
     FM151600 12007KT P6SM SCT010 SCT120
     FM152000 14012KT P6SM SCT100 BKN150
     FM160200 13007KT P6SM SCT030 BKN100=

USA.gov is the U.S. government's official web portal to all federal, state and local government web resources and services.